createdAt,value
2022-08-18T00:02:43.459Z,98001.88
2022-08-18T00:07:55.486Z,97991.31
2022-08-18T00:13:01.584Z,97968.53
2022-08-18T00:18:06.336Z,97965.88
2022-08-18T00:23:10.857Z,97968.41
2022-08-18T00:28:16.577Z,97967.53
2022-08-18T00:33:20.907Z,97968.41
2022-08-18T00:38:25.764Z,97948.25
2022-08-18T00:43:40.726Z,97944.09
2022-08-18T00:48:48.565Z,97929.75
2022-08-18T00:54:03.200Z,97931.31
2022-08-18T00:59:15.209Z,97924.81
2022-08-18T01:04:27.561Z,97934.34
2022-08-18T01:09:31.949Z,97936.69
2022-08-18T01:14:39.371Z,97944.34
2022-08-18T01:20:01.361Z,97949.50
2022-08-18T01:25:28.040Z,97948.66
2022-08-18T01:30:45.402Z,97953.78
2022-08-18T01:35:50.743Z,97944.84
2022-08-18T01:41:17.333Z,97937.41
2022-08-18T01:46:23.201Z,97931.78
2022-08-18T01:51:39.496Z,97911.03
2022-08-18T01:56:48.294Z,97927.63
2022-08-18T02:01:55.611Z,97926.91
2022-08-18T02:07:01.288Z,97936.00
2022-08-18T02:12:10.748Z,97924.03
2022-08-18T02:17:15.586Z,97915.19
2022-08-18T02:22:22.283Z,97912.22
2022-08-18T02:27:29.802Z,97902.31
2022-08-18T02:32:35.166Z,97896.22
2022-08-18T02:37:42.044Z,97890.53
2022-08-18T02:42:49.842Z,97891.28
2022-08-18T02:47:55.692Z,97871.22
2022-08-18T02:53:00.130Z,97870.44
2022-08-18T02:58:06.734Z,97874.53
2022-08-18T03:03:11.226Z,97878.47
2022-08-18T03:08:15.721Z,97868.41
2022-08-18T03:13:21.598Z,97863.91
2022-08-18T03:18:25.947Z,97853.16
2022-08-18T03:23:30.552Z,97843.94
2022-08-18T03:28:36.950Z,97860.22
2022-08-18T03:33:42.208Z,97851.44
2022-08-18T03:38:52.535Z,97841.47
2022-08-18T03:44:03.015Z,97841.75
2022-08-18T03:49:08.982Z,97838.91
2022-08-18T03:54:15.808Z,97832.81
2022-08-18T03:59:24.766Z,97857.09
2022-08-18T04:04:30.204Z,97878.03
2022-08-18T04:09:37.366Z,97875.91
2022-08-18T04:14:46.565Z,97877.06
2022-08-18T04:19:51.983Z,97885.03
2022-08-18T04:24:57.988Z,97892.00
2022-08-18T04:30:04.894Z,97883.50
2022-08-18T04:35:14.033Z,97896.44
2022-08-18T04:40:24.844Z,97898.47
2022-08-18T04:45:31.646Z,97923.91
2022-08-18T04:50:38.407Z,97926.16
2022-08-18T04:55:49.768Z,97904.81
2022-08-18T05:01:02.858Z,97911.38
2022-08-18T05:06:08.384Z,97894.19
2022-08-18T05:11:12.692Z,97895.34
2022-08-18T05:16:27.205Z,97908.72
2022-08-18T05:21:33.807Z,97902.47
2022-08-18T05:26:41.899Z,97904.47
2022-08-18T05:31:49.216Z,97910.34
2022-08-18T05:37:12.096Z,97917.03
2022-08-18T05:42:21.354Z,97912.78
2022-08-18T05:47:30.886Z,97919.66
2022-08-18T05:52:40.763Z,97931.75
2022-08-18T05:57:53.791Z,97924.94
2022-08-18T06:03:10.003Z,97928.50
2022-08-18T06:08:18.183Z,97932.16
2022-08-18T06:13:23.076Z,97923.78
2022-08-18T06:18:44.055Z,97930.34
2022-08-18T06:24:06.215Z,97954.47
2022-08-18T06:29:32.473Z,97951.44
2022-08-18T06:34:54.600Z,97917.88
2022-08-18T06:39:59.324Z,97931.88
2022-08-18T06:45:12.908Z,97925.56
2022-08-18T06:50:27.840Z,97940.75
2022-08-18T06:55:39.296Z,97941.91
2022-08-18T07:00:57.181Z,97953.59
2022-08-18T07:06:07.423Z,97956.69
2022-08-18T07:11:21.396Z,97952.28
2022-08-18T07:16:54.974Z,97950.47
2022-08-18T07:22:08.462Z,97973.19
2022-08-18T07:27:17.519Z,97997.81
2022-08-18T07:32:26.867Z,97983.03
2022-08-18T07:37:42.008Z,98002.13
2022-08-18T07:43:01.813Z,98015.53
2022-08-18T07:48:36.863Z,97984.78
2022-08-18T07:53:56.832Z,97962.13
2022-08-18T07:59:13.479Z,97945.16
2022-08-18T08:04:37.997Z,97916.91
2022-08-18T08:09:57.216Z,97922.34
2022-08-18T08:15:18.347Z,97942.53
2022-08-18T08:20:44.467Z,97936.09
2022-08-18T08:26:18.957Z,97931.34
2022-08-18T08:31:49.182Z,97905.44
2022-08-18T08:37:03.137Z,97910.00
2022-08-18T08:42:30.464Z,97916.38
2022-08-18T08:47:46.351Z,97928.50
2022-08-18T08:52:57.436Z,97946.44
2022-08-18T08:58:20.927Z,97971.84
2022-08-18T09:03:49.144Z,97971.13
2022-08-18T09:09:28.420Z,97970.03
2022-08-18T09:15:08.436Z,97951.47
2022-08-18T09:20:37.408Z,97923.66
2022-08-18T09:25:51.882Z,97910.72
2022-08-18T09:31:19.999Z,97906.66
2022-08-18T09:36:44.798Z,97906.41
2022-08-18T09:41:59.591Z,97887.16
2022-08-18T09:47:07.531Z,97873.56
2022-08-18T09:52:50.568Z,97855.13
2022-08-18T09:58:22.974Z,97837.72
2022-08-18T10:03:32.443Z,97835.13
2022-08-18T10:09:36.855Z,97858.19
2022-08-18T10:15:32.915Z,97882.06
2022-08-18T10:20:58.037Z,97884.41
2022-08-18T10:26:05.125Z,97863.00
2022-08-18T10:31:16.475Z,97874.06
2022-08-18T10:36:46.825Z,97856.06
2022-08-18T10:42:05.611Z,97844.50
2022-08-18T10:47:23.353Z,97856.16
2022-08-18T10:53:39.391Z,97823.56
2022-08-18T10:58:53.422Z,97802.78
2022-08-18T11:04:14.425Z,97791.78
2022-08-18T11:09:35.649Z,97784.63
2022-08-18T11:15:22.304Z,97784.03
2022-08-18T11:20:33.260Z,97798.59
2022-08-18T11:25:42.156Z,97797.69
2022-08-18T11:30:53.704Z,97785.81
2022-08-18T11:36:01.696Z,97791.19
2022-08-18T11:41:23.321Z,97798.09
2022-08-18T11:46:32.544Z,97801.47
2022-08-18T11:52:03.498Z,97802.56
2022-08-18T11:57:59.249Z,97807.91
2022-08-18T12:03:32.642Z,97796.94
2022-08-18T12:08:58.261Z,97801.72
2022-08-18T12:14:31.819Z,97795.00
2022-08-18T12:19:40.107Z,97804.56
2022-08-18T12:24:46.100Z,97804.31
2022-08-18T12:29:58.452Z,97808.13
2022-08-18T12:35:09.205Z,97812.97
2022-08-18T12:40:15.192Z,97794.88
2022-08-18T12:45:21.467Z,97783.78
2022-08-18T12:50:30.912Z,97777.22
2022-08-18T12:55:44.179Z,97775.38
2022-08-18T13:00:51.874Z,97767.28
2022-08-18T13:05:56.835Z,97774.56
2022-08-18T13:11:15.101Z,97776.47
2022-08-18T13:16:53.409Z,97765.16
2022-08-18T13:21:57.164Z,97757.63
2022-08-18T13:27:04.074Z,97755.06
2022-08-18T13:32:26.317Z,97757.53
2022-08-18T13:37:33.302Z,97753.19
2022-08-18T13:42:53.022Z,97759.63
2022-08-18T13:48:02.290Z,97761.38
2022-08-18T13:53:18.879Z,97774.28
2022-08-18T13:58:24.171Z,97768.91
2022-08-18T14:03:46.680Z,97774.75
2022-08-18T14:08:57.096Z,97776.56
2022-08-18T14:14:06.439Z,97769.25
2022-08-18T14:19:30.151Z,97779.09
2022-08-18T14:24:54.531Z,97772.91
2022-08-18T14:30:07.790Z,97777.22
2022-08-18T14:36:04.362Z,97790.00
2022-08-18T14:40:48.128Z,97779.78
2022-08-18T14:45:53.860Z,97779.50
2022-08-18T14:51:04.779Z,97782.63
2022-08-18T14:56:17.774Z,97793.63
2022-08-18T15:01:23.243Z,97787.41
2022-08-18T15:06:55.891Z,97799.81
2022-08-18T15:12:02.449Z,97801.59
2022-08-18T15:17:13.290Z,97790.31
2022-08-18T15:22:41.592Z,97804.84
2022-08-18T15:27:57.484Z,97801.75
2022-08-18T15:33:05.794Z,97811.34
2022-08-18T15:38:24.372Z,97807.66
2022-08-18T15:43:46.100Z,97813.47
2022-08-18T15:48:54.127Z,97807.50
2022-08-18T15:54:03.383Z,97801.06
2022-08-18T15:59:19.650Z,97802.19
2022-08-18T16:04:27.209Z,97797.09
2022-08-18T16:09:33.726Z,97803.41
2022-08-18T16:14:41.337Z,97800.50
2022-08-18T16:19:46.554Z,97788.44
2022-08-18T16:24:56.073Z,97796.19
2022-08-18T16:30:17.297Z,97797.59
2022-08-18T16:35:23.892Z,97793.72
2022-08-18T16:40:33.489Z,97796.56
2022-08-18T16:45:40.471Z,97797.94
2022-08-18T16:50:46.525Z,97801.31
2022-08-18T16:55:52.184Z,97804.50
2022-08-18T17:01:18.801Z,97797.97
2022-08-18T17:06:28.668Z,97793.00
2022-08-18T17:11:34.487Z,97785.53
2022-08-18T17:16:55.441Z,97776.38
2022-08-18T17:22:00.455Z,97783.59
2022-08-18T17:27:26.575Z,97776.81
2022-08-18T17:32:42.129Z,97780.03
2022-08-18T17:37:53.004Z,97787.28
2022-08-18T17:43:00.189Z,97787.59
2022-08-18T17:48:12.451Z,97788.38
2022-08-18T17:53:18.316Z,97788.72
2022-08-18T17:58:39.281Z,97797.97
2022-08-18T18:03:45.706Z,97796.16
2022-08-18T18:08:58.101Z,97787.84
2022-08-18T18:14:27.009Z,97789.25
2022-08-18T18:19:33.335Z,97796.09
2022-08-18T18:24:40.163Z,97797.47
2022-08-18T18:29:56.345Z,97799.88
2022-08-18T18:35:23.724Z,97806.19
2022-08-18T18:40:37.011Z,97815.41
2022-08-18T18:45:43.905Z,97817.59
2022-08-18T18:51:10.389Z,97824.06
2022-08-18T18:56:25.768Z,97820.50
2022-08-18T19:01:45.169Z,97826.78
2022-08-18T19:07:00.149Z,97825.09
2022-08-18T19:12:17.296Z,97838.38
2022-08-18T19:17:33.194Z,97831.72
2022-08-18T19:22:47.561Z,97830.28
2022-08-18T19:28:05.040Z,97841.00
2022-08-18T19:33:25.939Z,97833.00
2022-08-18T19:38:42.162Z,97838.97
2022-08-18T19:43:57.356Z,97846.38
2022-08-18T19:49:18.557Z,97851.91
2022-08-18T19:54:54.979Z,97850.53
2022-08-18T20:00:27.709Z,97858.50
2022-08-18T20:05:52.145Z,97859.13
2022-08-18T20:11:22.020Z,97861.50
2022-08-18T20:17:19.740Z,97858.41
2022-08-18T20:30:49.088Z,97861.03
2022-08-18T20:36:44.209Z,97876.63
2022-08-18T20:41:52.077Z,97884.41
2022-08-18T20:47:15.025Z,97879.97
2022-08-18T20:53:41.061Z,97878.81
2022-08-18T21:00:28.410Z,97894.94
2022-08-18T21:14:07.742Z,97901.16
2022-08-18T21:19:27.938Z,97890.53
2022-08-18T21:24:37.116Z,97896.22
2022-08-18T21:29:49.827Z,97902.06
2022-08-18T21:34:57.299Z,97900.19
2022-08-18T21:40:12.720Z,97907.91
2022-08-18T21:45:25.229Z,97907.66
2022-08-18T21:50:32.193Z,97917.97
2022-08-18T21:55:42.578Z,97930.94
2022-08-18T22:01:11.834Z,97923.78
2022-08-18T22:06:36.228Z,97929.00
2022-08-18T22:12:01.279Z,97929.34
2022-08-18T22:17:32.318Z,97947.81
2022-08-18T22:22:54.155Z,97949.22
2022-08-18T22:28:00.775Z,97946.81
2022-08-18T22:33:06.474Z,97945.94
2022-08-18T22:38:15.251Z,97932.50
2022-08-18T22:43:19.696Z,97945.22
2022-08-18T22:48:25.842Z,97943.97
2022-08-18T22:53:31.250Z,97940.13
2022-08-18T22:58:36.155Z,97943.81
2022-08-18T23:03:44.987Z,97947.25
2022-08-18T23:08:51.765Z,97960.09
2022-08-18T23:14:00.691Z,97951.66
2022-08-18T23:19:06.476Z,97938.94
2022-08-18T23:24:15.349Z,97931.84
2022-08-18T23:29:21.978Z,97938.50
2022-08-18T23:34:27.672Z,97935.50
2022-08-18T23:39:34.900Z,97928.94
2022-08-18T23:44:39.246Z,97933.22
2022-08-18T23:49:44.999Z,97920.13
2022-08-18T23:54:49.304Z,97919.13
2022-08-18T23:59:54.570Z,97912.75
